Time;durP1;ratioP1;P1;durP2;ratioP2;P2;SDS_P1;SDS_P2;PMS_P1;PMS_P2;Temp;Humidity;BMP_temperature;BMP_pressure;BME280_temperature;BME280_humidity;BME280_pressure;Samples;Min_cycle;Max_cycle;Signal;HPM_P1;HPM_P2
2023/02/10 00:01:12;;;;;;;19.17;6.60;;;1.90;99.90;;;;;;5071800;28;20041;-66
2023/02/10 00:03:38;;;;;;;18.35;6.45;;;2.20;99.90;;;;;;5071341;28;20518;-66
2023/02/10 00:06:05;;;;;;;25.40;6.10;;;2.10;99.90;;;;;;5071699;28;20083;-66
2023/02/10 00:08:30;;;;;;;25.48;6.10;;;2.10;99.90;;;;;;5068113;28;20882;-66
2023/02/10 00:11:01;;;;;;;19.30;6.32;;;1.80;99.90;;;;;;5061418;28;20040;-66
2023/02/10 00:13:28;;;;;;;23.95;7.30;;;1.70;99.90;;;;;;5071578;28;20051;-66
2023/02/10 00:15:54;;;;;;;23.00;6.60;;;1.80;99.90;;;;;;5071067;28;20041;-66
2023/02/10 00:18:20;;;;;;;19.45;7.60;;;1.80;99.90;;;;;;5070978;28;20033;-66
2023/02/10 00:20:46;;;;;;;19.77;5.82;;;2.00;99.90;;;;;;5055308;28;20152;-66
2023/02/10 00:23:11;;;;;;;26.50;6.97;;;1.80;99.90;;;;;;5053119;28;20475;-67
2023/02/10 00:25:37;;;;;;;20.60;6.97;;;1.90;99.90;;;;;;5051498;28;20426;-66
2023/02/10 00:28:04;;;;;;;28.80;7.38;;;1.80;99.90;;;;;;5066751;28;20502;-66
2023/02/10 00:30:31;;;;;;;26.77;7.28;;;1.80;99.90;;;;;;5071321;28;20082;-66
2023/02/10 00:32:57;;;;;;;27.58;7.55;;;1.80;99.90;;;;;;5071437;28;20041;-66
2023/02/10 00:35:23;;;;;;;24.58;7.45;;;1.70;99.90;;;;;;5071177;28;20029;-66
2023/02/10 00:37:48;;;;;;;31.23;7.93;;;2.10;99.90;;;;;;5070084;28;20471;-66
2023/02/10 00:40:14;;;;;;;21.92;7.40;;;1.90;99.90;;;;;;5069307;28;20072;-66
2023/02/10 00:42:40;;;;;;;19.65;7.20;;;1.90;99.90;;;;;;5059823;28;20079;-66
2023/02/10 00:45:06;;;;;;;25.02;7.82;;;1.50;99.90;;;;;;5070191;28;20044;-66
2023/02/10 00:47:31;;;;;;;25.15;7.40;;;1.60;99.90;;;;;;5071475;28;20461;-66
2023/02/10 00:49:57;;;;;;;31.17;7.72;;;1.70;99.90;;;;;;5061527;28;20443;-66
2023/02/10 00:52:23;;;;;;;31.25;7.75;;;1.70;99.90;;;;;;5069121;28;20554;-66
2023/02/10 00:54:49;;;;;;;26.05;8.98;;;1.60;99.90;;;;;;5071000;28;20483;-66
2023/02/10 00:57:15;;;;;;;22.55;7.47;;;1.80;99.90;;;;;;5071182;28;20052;-66
2023/02/10 00:59:41;;;;;;;19.27;7.90;;;1.40;99.90;;;;;;5069773;28;20040;-66
2023/02/10 01:02:06;;;;;;;34.17;7.93;;;1.80;99.90;;;;;;5071111;28;20036;-66
2023/02/10 01:04:33;;;;;;;25.80;7.78;;;1.50;99.90;;;;;;5069703;28;20048;-66
2023/02/10 01:06:58;;;;;;;39.92;9.13;;;1.80;99.90;;;;;;5065082;28;20106;-67
2023/02/10 01:09:24;;;;;;;26.00;8.85;;;1.50;99.90;;;;;;5061869;28;20494;-66
2023/02/10 01:11:50;;;;;;;22.23;8.90;;;1.90;99.90;;;;;;5069783;28;20036;-66
2023/02/10 01:14:15;;;;;;;26.45;8.35;;;1.60;99.90;;;;;;5066525;28;20403;-66
2023/02/10 01:16:42;;;;;;;23.13;7.97;;;1.80;99.90;;;;;;5058560;28;20494;-66
2023/02/10 01:19:08;;;;;;;36.70;8.70;;;1.80;99.90;;;;;;5050723;28;20494;-66
2023/02/10 01:21:33;;;;;;;27.15;8.40;;;1.70;99.90;;;;;;5051088;28;20029;-66
2023/02/10 01:23:59;;;;;;;25.27;7.68;;;1.70;99.90;;;;;;5050825;28;20041;-66
2023/02/10 01:26:25;;;;;;;34.42;8.05;;;1.60;99.90;;;;;;5051113;28;20127;-66
2023/02/10 01:28:51;;;;;;;30.30;7.70;;;1.50;99.90;;;;;;5053300;28;20134;-66
2023/02/10 01:31:19;;;;;;;26.77;8.07;;;1.50;99.90;;;;;;5054433;28;20493;-66
2023/02/10 01:33:46;;;;;;;25.03;9.33;;;1.60;99.90;;;;;;5054361;28;20048;-66
2023/02/10 01:36:15;;;;;;;21.95;8.65;;;1.80;99.90;;;;;;5054835;28;20303;-66
2023/02/10 01:38:41;;;;;;;25.08;7.75;;;1.30;99.90;;;;;;5054635;28;20040;-66
2023/02/10 01:41:08;;;;;;;23.52;7.50;;;1.60;99.90;;;;;;5054637;28;20045;-66
2023/02/10 01:44:04;;;;;;;24.70;6.38;;;1.30;99.90;;;;;;5054459;28;20044;-67
2023/02/10 01:46:32;;;;;;;25.75;5.90;;;1.50;99.90;;;;;;5054035;28;20491;-66
2023/02/10 01:49:02;;;;;;;28.25;7.45;;;1.80;99.90;;;;;;5054085;28;20041;-66
2023/02/10 01:51:42;;;;;;;23.17;6.90;;;2.00;99.90;;;;;;5054043;28;20483;-66
2023/02/10 01:54:13;;;;;;;24.98;7.78;;;1.70;99.90;;;;;;5053811;28;20079;-66
2023/02/10 01:56:40;;;;;;;16.63;6.07;;;1.80;99.90;;;;;;5053893;28;20067;-66
2023/02/10 01:59:07;;;;;;;24.90;6.00;;;1.70;99.90;;;;;;5053989;28;20037;-66
2023/02/10 02:01:32;;;;;;;32.33;7.70;;;1.40;99.90;;;;;;5054062;28;20086;-66
2023/02/10 02:04:00;;;;;;;23.70;6.40;;;1.40;99.90;;;;;;5052442;28;20049;-66
2023/02/10 02:06:25;;;;;;;25.52;6.80;;;1.70;99.90;;;;;;5053942;28;20120;-66
2023/02/10 02:08:52;;;;;;;23.35;6.38;;;1.40;99.90;;;;;;5053778;28;20124;-66
2023/02/10 02:11:28;;;;;;;30.48;6.85;;;1.70;99.90;;;;;;5053473;28;20032;-66
2023/02/10 02:14:09;;;;;;;21.25;5.50;;;1.30;99.90;;;;;;5055406;28;20075;-66
2023/02/10 02:16:50;;;;;;;21.80;5.82;;;1.70;99.90;;;;;;5073727;28;20045;-66
2023/02/10 02:19:32;;;;;;;28.60;5.75;;;1.50;99.90;;;;;;5073635;28;20540;-66
2023/02/10 02:22:33;;;;;;;22.30;5.97;;;1.70;99.90;;;;;;5073600;28;20040;-67
2023/02/10 02:25:05;;;;;;;18.83;5.63;;;1.70;99.90;;;;;;5054549;28;20045;-66
2023/02/10 02:27:45;;;;;;;20.10;6.93;;;1.50;99.90;;;;;;5053505;28;20116;-66
2023/02/10 02:30:32;;;;;;;13.90;5.30;;;1.90;99.90;;;;;;5053301;28;20072;-66
2023/02/10 02:33:04;;;;;;;24.77;6.38;;;1.80;99.90;;;;;;5053213;28;20087;-66
2023/02/10 02:35:43;;;;;;;23.00;5.93;;;1.60;99.90;;;;;;5053356;28;20045;-66
2023/02/10 02:38:10;;;;;;;14.63;5.47;;;1.60;99.90;;;;;;5053241;28;20116;-66
2023/02/10 02:40:35;;;;;;;14.25;5.82;;;1.90;99.90;;;;;;5052615;28;20033;-66
2023/02/10 02:43:02;;;;;;;19.25;5.75;;;1.60;99.90;;;;;;5053366;28;20043;-66
2023/02/10 02:45:45;;;;;;;29.95;7.43;;;1.70;99.90;;;;;;5052933;28;20047;-66
2023/02/10 02:48:20;;;;;;;21.42;5.22;;;1.60;99.90;;;;;;5053116;28;20037;-66
2023/02/10 02:51:01;;;;;;;18.92;5.57;;;1.80;99.90;;;;;;5040426;28;20474;-66
2023/02/10 02:53:39;;;;;;;22.70;5.25;;;1.60;99.90;;;;;;5053003;28;20117;-66
2023/02/10 02:56:25;;;;;;;21.33;5.72;;;1.60;99.90;;;;;;5052946;28;20049;-66
2023/02/10 02:58:59;;;;;;;19.10;6.25;;;1.70;99.90;;;;;;5056404;28;20036;-66
2023/02/10 03:01:36;;;;;;;20.65;5.72;;;1.80;99.90;;;;;;5061985;28;20387;-66
2023/02/10 03:04:02;;;;;;;23.88;5.45;;;1.80;99.90;;;;;;5066505;28;20060;-66
2023/02/10 03:06:29;;;;;;;19.88;6.03;;;1.70;99.90;;;;;;5052853;28;20048;-66
2023/02/10 03:08:54;;;;;;;25.42;5.28;;;1.90;99.90;;;;;;5055262;28;20048;-66
2023/02/10 03:11:21;;;;;;;17.98;6.38;;;1.50;99.90;;;;;;5072475;28;20036;-66
2023/02/10 03:13:46;;;;;;;12.13;5.38;;;1.70;99.90;;;;;;5072348;28;20040;-66
2023/02/10 03:16:12;;;;;;;16.13;5.22;;;1.50;99.90;;;;;;5072242;28;20044;-66
2023/02/10 03:18:37;;;;;;;18.42;4.80;;;1.40;99.90;;;;;;5072594;28;20033;-66
2023/02/10 03:21:03;;;;;;;19.42;5.72;;;1.40;99.90;;;;;;5072250;28;20032;-66
2023/02/10 03:23:29;;;;;;;27.55;6.25;;;1.50;99.90;;;;;;5065780;28;20086;-67
2023/02/10 03:25:58;;;;;;;23.52;6.75;;;1.60;99.90;;;;;;5052235;28;20049;-66
2023/02/10 03:28:23;;;;;;;20.35;6.43;;;1.50;99.90;;;;;;5052168;28;20044;-66
2023/02/10 03:30:50;;;;;;;18.90;5.10;;;1.60;99.90;;;;;;5050877;28;20368;-66
2023/02/10 03:33:16;;;;;;;21.83;5.47;;;1.60;99.90;;;;;;5052191;28;20033;-66
2023/02/10 03:35:44;;;;;;;28.17;6.50;;;1.30;99.90;;;;;;5052243;28;20163;-66
2023/02/10 03:38:10;;;;;;;17.05;5.07;;;1.50;99.90;;;;;;5052052;28;20041;-66
2023/02/10 03:40:36;;;;;;;22.95;6.28;;;1.20;99.90;;;;;;5050271;28;20052;-66
2023/02/10 03:43:02;;;;;;;24.33;6.00;;;1.20;99.90;;;;;;5052210;28;20163;-66
2023/02/10 03:45:28;;;;;;;23.02;6.03;;;1.50;99.90;;;;;;5052016;28;20096;-66
2023/02/10 03:47:53;;;;;;;21.50;6.03;;;1.50;99.90;;;;;;5052062;28;20120;-66
2023/02/10 03:50:19;;;;;;;23.40;5.57;;;1.50;99.90;;;;;;5051758;28;20044;-66
2023/02/10 03:52:45;;;;;;;20.50;5.43;;;1.40;99.90;;;;;;5061047;28;20501;-67
2023/02/10 03:55:14;;;;;;;25.60;5.50;;;1.70;99.90;;;;;;5065255;28;20040;-66
2023/02/10 03:57:40;;;;;;;;;;;1.40;99.90;;;;;;5065666;28;20137;-66
2023/02/10 04:00:07;;;;;;;21.10;5.65;;;1.30;99.90;;;;;;5071693;28;19961;-66
2023/02/10 04:02:32;;;;;;;17.30;5.82;;;1.40;99.90;;;;;;5072147;28;20040;-66
2023/02/10 04:04:58;;;;;;;21.25;5.75;;;1.40;99.90;;;;;;5071826;28;20486;-66
2023/02/10 04:07:23;;;;;;;18.75;5.25;;;1.40;99.90;;;;;;5072056;28;20036;-67
2023/02/10 04:09:49;;;;;;;20.58;5.47;;;1.80;99.90;;;;;;5070732;28;20063;-67
2023/02/10 04:12:15;;;;;;;22.52;6.18;;;1.70;99.90;;;;;;5069318;28;20048;-67
2023/02/10 04:14:40;;;;;;;36.80;6.38;;;1.70;99.90;;;;;;5071518;28;20032;-67
2023/02/10 04:17:06;;;;;;;19.88;6.13;;;1.70;99.90;;;;;;5070346;28;20032;-66
2023/02/10 04:19:31;;;;;;;24.63;5.65;;;1.60;99.90;;;;;;5071402;28;20524;-67
2023/02/10 04:21:57;;;;;;;21.58;5.93;;;1.60;99.90;;;;;;5070259;28;20033;-66
2023/02/10 04:24:23;;;;;;;23.75;6.28;;;1.40;99.90;;;;;;5057208;28;20055;-67
2023/02/10 04:26:48;;;;;;;25.13;6.50;;;1.40;99.90;;;;;;5037779;28;20386;-67
2023/02/10 04:29:14;;;;;;;22.92;6.35;;;1.90;99.90;;;;;;5051501;28;20123;-66
2023/02/10 04:31:39;;;;;;;23.02;6.82;;;1.60;99.90;;;;;;5051281;28;20045;-66
2023/02/10 04:34:05;;;;;;;22.83;6.88;;;1.50;99.90;;;;;;5051219;28;20037;-66
2023/02/10 04:36:31;;;;;;;27.27;7.55;;;1.60;99.90;;;;;;5051172;28;20041;-66
2023/02/10 04:38:57;;;;;;;23.67;6.68;;;1.90;99.90;;;;;;5051665;28;20044;-66
2023/02/10 04:41:22;;;;;;;33.13;7.22;;;1.90;99.90;;;;;;5051721;28;20037;-66
2023/02/10 04:43:48;;;;;;;30.80;7.60;;;1.40;99.90;;;;;;5051771;28;20074;-66
2023/02/10 04:46:14;;;;;;;21.92;6.00;;;1.60;99.90;;;;;;5051291;28;20128;-66
2023/02/10 04:48:39;;;;;;;24.42;7.03;;;1.70;99.90;;;;;;5051180;28;20041;-66
2023/02/10 04:51:09;;;;;;;19.08;6.45;;;1.90;99.90;;;;;;5051338;28;20170;-66
2023/02/10 04:53:36;;;;;;;27.92;7.00;;;1.70;99.90;;;;;;5049910;28;20045;-66
2023/02/10 04:56:03;;;;;;;22.48;6.70;;;1.70;99.90;;;;;;5050022;28;20395;-66
2023/02/10 04:58:29;;;;;;;26.70;6.60;;;1.70;99.90;;;;;;5051156;28;20037;-66
2023/02/10 05:00:56;;;;;;;28.58;6.45;;;1.80;99.90;;;;;;5069501;28;20036;-66
2023/02/10 05:03:22;;;;;;;26.25;6.55;;;1.50;99.90;;;;;;5072619;28;20084;-66
2023/02/10 05:05:48;;;;;;;20.60;6.78;;;1.90;99.90;;;;;;5073653;28;20449;-66
2023/02/10 05:08:14;;;;;;;20.70;6.15;;;1.50;99.90;;;;;;5072550;28;20033;-66
2023/02/10 05:10:39;;;;;;;21.15;6.45;;;1.50;99.90;;;;;;5074989;28;20067;-66
2023/02/10 05:13:05;;;;;;;24.45;6.70;;;1.90;99.90;;;;;;5075020;28;20072;-66
2023/02/10 05:15:31;;;;;;;23.30;6.72;;;1.70;99.90;;;;;;5074439;28;20115;-66
2023/02/10 05:17:57;;;;;;;26.23;6.38;;;1.70;99.90;;;;;;5074769;28;20124;-66
2023/02/10 05:20:22;;;;;;;20.23;6.90;;;1.90;99.90;;;;;;5074184;28;20115;-66
2023/02/10 05:22:48;;;;;;;20.60;5.85;;;1.70;99.90;;;;;;5060014;28;20041;-66
2023/02/10 05:25:13;;;;;;;21.33;6.43;;;1.70;99.90;;;;;;5054759;28;20390;-66
2023/02/10 05:27:39;;;;;;;21.88;6.60;;;1.90;99.90;;;;;;5054676;28;20430;-66
2023/02/10 05:30:06;;;;;;;26.15;6.68;;;1.80;99.90;;;;;;5054560;28;20037;-66
2023/02/10 05:32:33;;;;;;;24.15;5.95;;;2.10;99.90;;;;;;5054432;28;20395;-66
2023/02/10 05:34:58;;;;;;;23.48;7.15;;;1.70;99.90;;;;;;5054331;28;20483;-67
2023/02/10 05:37:24;;;;;;;25.92;7.15;;;1.80;99.90;;;;;;5054235;28;20055;-66
2023/02/10 05:39:49;;;;;;;26.25;7.15;;;2.10;99.90;;;;;;5054651;28;20116;-66
2023/02/10 05:42:15;;;;;;;26.67;7.20;;;1.90;99.90;;;;;;5054401;28;20396;-66
2023/02/10 05:44:41;;;;;;;22.02;7.13;;;1.90;99.90;;;;;;5054372;28;20041;-66
2023/02/10 05:47:06;;;;;;;28.95;7.47;;;2.10;99.90;;;;;;5054176;28;20040;-66
2023/02/10 05:49:32;;;;;;;17.80;6.85;;;2.20;99.90;;;;;;5054267;28;20419;-66
2023/02/10 05:51:57;;;;;;;28.27;7.57;;;2.10;99.90;;;;;;5052746;28;20471;-66
2023/02/10 05:54:23;;;;;;;24.98;7.95;;;2.10;99.90;;;;;;5054360;28;20128;-66
2023/02/10 05:56:50;;;;;;;25.40;7.03;;;2.20;99.90;;;;;;5055705;28;20051;-66
2023/02/10 05:59:16;;;;;;;30.80;7.47;;;2.40;99.90;;;;;;5073851;28;20041;-66
2023/02/10 06:01:42;;;;;;;23.38;7.53;;;2.30;99.90;;;;;;5071572;28;20055;-66
2023/02/10 06:04:08;;;;;;;26.80;7.35;;;2.30;99.90;;;;;;5073671;28;20044;-66
2023/02/10 06:06:33;;;;;;;25.08;7.60;;;2.50;99.90;;;;;;5073614;28;20051;-66
2023/02/10 06:08:59;;;;;;;30.80;7.65;;;2.30;99.90;;;;;;5073602;28;20067;-66
2023/02/10 06:11:25;;;;;;;31.52;7.90;;;2.20;99.90;;;;;;5073924;28;20078;-67
2023/02/10 06:13:50;;;;;;;19.27;7.68;;;2.20;99.90;;;;;;5073145;28;20123;-66
2023/02/10 06:16:16;;;;;;;26.25;8.75;;;2.70;99.90;;;;;;5072711;28;20394;-66
2023/02/10 06:18:42;;;;;;;23.95;7.97;;;2.60;99.90;;;;;;5073663;28;20040;-66
2023/02/10 06:21:08;;;;;;;28.67;8.25;;;2.40;99.90;;;;;;5070787;28;20032;-65
2023/02/10 06:23:34;;;;;;;28.73;9.10;;;2.20;99.90;;;;;;5053626;28;20162;-66
2023/02/10 06:26:00;;;;;;;30.48;8.50;;;2.70;99.90;;;;;;5052536;28;20486;-65
2023/02/10 06:28:27;;;;;;;26.20;8.20;;;2.70;99.90;;;;;;5053281;28;20033;-65
2023/02/10 06:30:53;;;;;;;28.02;8.95;;;2.40;99.90;;;;;;5053454;28;20077;-65
2023/02/10 06:33:19;;;;;;;32.50;9.52;;;2.80;99.90;;;;;;5053192;28;20056;-65
2023/02/10 06:35:46;;;;;;;23.93;8.70;;;2.50;99.90;;;;;;5062820;28;20479;-65
2023/02/10 06:38:12;;;;;;;29.33;8.50;;;2.90;99.90;;;;;;5057232;28;20467;-65
2023/02/10 06:40:38;;;;;;;25.05;9.27;;;2.80;99.90;;;;;;5053214;28;20112;-66
2023/02/10 06:43:04;;;;;;;23.20;8.77;;;2.50;99.90;;;;;;5053141;28;20128;-65
2023/02/10 06:45:30;;;;;;;27.77;9.45;;;2.90;99.90;;;;;;5053081;28;20040;-65
2023/02/10 06:47:56;;;;;;;27.20;9.52;;;2.50;99.90;;;;;;5053357;28;20045;-65
2023/02/10 06:50:21;;;;;;;26.88;9.65;;;2.60;99.90;;;;;;5052747;28;20075;-66
2023/02/10 06:52:47;;;;;;;27.13;8.73;;;3.00;99.90;;;;;;5052169;28;20471;-65
2023/02/10 06:55:14;;;;;;;26.52;8.77;;;2.70;99.90;;;;;;5053480;28;20437;-65
2023/02/10 06:57:40;;;;;;;22.88;9.05;;;3.00;99.90;;;;;;5052190;28;20049;-65
2023/02/10 07:00:09;;;;;;;21.20;9.07;;;2.70;99.90;;;;;;5053551;28;20405;-66
2023/02/10 07:02:35;;;;;;;25.02;10.38;;;2.80;99.90;;;;;;5053764;28;20048;-65
2023/02/10 07:05:06;;;;;;;28.88;8.73;;;2.90;99.90;;;;;;5059443;28;20109;-65
2023/02/10 07:07:32;;;;;;;28.60;9.27;;;3.00;99.90;;;;;;5055486;28;20076;-65
2023/02/10 07:09:57;;;;;;;25.92;9.82;;;2.70;99.90;;;;;;5072367;28;20067;-65
2023/02/10 07:12:24;;;;;;;26.80;9.30;;;2.70;99.90;;;;;;5072590;28;20158;-66
2023/02/10 07:14:51;;;;;;;26.20;9.55;;;2.80;99.90;;;;;;5072411;28;20078;-64
2023/02/10 07:17:17;;;;;;;29.00;10.48;;;3.10;99.90;;;;;;5072293;28;20047;-64
2023/02/10 07:19:43;;;;;;;30.35;9.05;;;2.90;99.90;;;;;;5071313;28;20064;-64
2023/02/10 07:22:09;;;;;;;25.13;8.48;;;3.00;99.90;;;;;;5058158;28;20450;-64
2023/02/10 07:24:35;;;;;;;24.05;9.52;;;3.00;99.90;;;;;;5054489;28;20033;-64
2023/02/10 07:27:02;;;;;;;23.35;8.95;;;3.10;99.90;;;;;;5051536;28;20041;-64
2023/02/10 07:29:28;;;;;;;26.92;10.02;;;3.00;99.90;;;;;;5051281;28;20044;-65
2023/02/10 07:31:53;;;;;;;27.92;9.88;;;2.80;99.90;;;;;;5050887;28;20037;-64
2023/02/10 07:34:20;;;;;;;28.02;9.95;;;3.10;99.90;;;;;;5051279;28;20040;-64
2023/02/10 07:36:46;;;;;;;23.58;9.45;;;3.30;99.90;;;;;;5051172;28;20095;-64
2023/02/10 07:39:12;;;;;;;40.55;11.57;;;3.10;99.90;;;;;;5034611;28;20052;-64
2023/02/10 07:41:39;;;;;;;23.70;9.75;;;3.00;99.90;;;;;;5052246;28;20041;-64
2023/02/10 07:44:04;;;;;;;37.17;10.50;;;3.10;99.90;;;;;;5052270;28;20049;-64
2023/02/10 07:46:30;;;;;;;34.25;9.98;;;3.30;99.90;;;;;;5051975;28;20362;-64
2023/02/10 07:48:56;;;;;;;24.45;9.35;;;3.30;99.90;;;;;;5052185;28;20052;-65
2023/02/10 07:51:21;;;;;;;42.10;11.85;;;3.00;99.90;;;;;;5062990;28;20041;-64
2023/02/10 07:53:47;;;;;;;25.48;10.75;;;3.30;99.90;;;;;;5053524;28;20390;-65
2023/02/10 07:56:12;;;;;;;25.02;9.88;;;3.30;99.90;;;;;;5051514;28;20041;-64
2023/02/10 07:58:38;;;;;;;23.20;9.82;;;3.60;99.90;;;;;;5062554;28;20025;-64
2023/02/10 08:01:11;;;;;;;29.83;10.80;;;3.50;99.90;;;;;;5070268;28;20512;-64
2023/02/10 08:03:37;;;;;;;26.17;10.00;;;3.80;99.90;;;;;;5071620;28;20146;-64
2023/02/10 08:06:04;;;;;;;33.63;10.13;;;3.90;99.90;;;;;;5071474;28;20048;-64
2023/02/10 08:08:29;;;;;;;27.90;10.20;;;3.60;99.90;;;;;;5071832;28;20028;-64
2023/02/10 08:10:55;;;;;;;21.00;10.18;;;3.90;99.90;;;;;;5071626;28;20253;-64
2023/02/10 08:13:21;;;;;;;25.83;10.10;;;3.80;99.90;;;;;;5071399;28;20037;-65
2023/02/10 08:15:46;;;;;;;31.17;10.82;;;4.10;99.90;;;;;;5071437;28;20044;-64
2023/02/10 08:18:12;;;;;;;20.83;9.50;;;4.00;99.90;;;;;;5071607;28;20039;-64
2023/02/10 08:20:40;;;;;;;24.27;9.60;;;3.90;99.90;;;;;;5061721;28;20064;-64
2023/02/10 08:23:06;;;;;;;27.67;10.18;;;3.90;99.90;;;;;;5052935;28;20021;-64
2023/02/10 08:25:31;;;;;;;32.15;10.82;;;3.90;99.90;;;;;;5051573;28;20078;-64
2023/02/10 08:27:58;;;;;;;22.20;10.40;;;3.70;99.90;;;;;;5051301;28;20032;-64
2023/02/10 08:30:24;;;;;;;24.15;9.48;;;4.00;99.90;;;;;;5051291;28;20076;-64
2023/02/10 08:32:50;;;;;;;26.27;10.05;;;3.80;99.90;;;;;;5051433;28;20076;-64
2023/02/10 08:35:15;;;;;;;32.45;11.00;;;3.80;99.90;;;;;;5051223;28;20079;-64
2023/02/10 08:37:41;;;;;;;25.40;10.20;;;3.70;99.90;;;;;;5051953;28;20033;-64
2023/02/10 08:40:07;;;;;;;26.38;10.15;;;4.10;99.90;;;;;;5055277;28;20086;-64
2023/02/10 08:42:34;;;;;;;24.98;10.20;;;4.00;99.90;;;;;;5055474;28;20035;-64
2023/02/10 08:44:59;;;;;;;26.88;9.82;;;4.10;99.90;;;;;;5055292;28;20445;-64
2023/02/10 08:47:25;;;;;;;23.10;9.15;;;4.00;99.90;;;;;;5055513;28;20037;-64
2023/02/10 08:49:51;;;;;;;26.00;10.25;;;4.00;99.90;;;;;;5055559;28;20048;-64
2023/02/10 08:52:17;;;;;;;20.80;9.43;;;4.30;99.90;;;;;;5055225;28;20029;-64
2023/02/10 08:54:42;;;;;;;30.08;10.85;;;4.30;99.90;;;;;;5068352;28;20127;-64
2023/02/10 08:57:09;;;;;;;28.65;9.70;;;4.20;99.90;;;;;;5061249;28;20581;-64
2023/02/10 08:59:35;;;;;;;23.67;10.88;;;4.20;99.90;;;;;;5074998;28;20475;-64
2023/02/10 09:02:01;;;;;;;32.67;11.18;;;4.30;99.90;;;;;;5075321;28;20112;-64
2023/02/10 09:04:27;;;;;;;27.15;10.50;;;4.30;99.90;;;;;;5074737;28;20048;-64
2023/02/10 09:06:53;;;;;;;25.30;9.43;;;4.30;99.90;;;;;;5075040;28;20048;-64
2023/02/10 09:09:26;;;;;;;24.00;9.90;;;4.40;99.90;;;;;;5075060;28;20035;-64
2023/02/10 09:11:53;;;;;;;20.98;9.45;;;4.70;99.90;;;;;;5073770;28;20111;-64
2023/02/10 09:14:19;;;;;;;18.00;8.45;;;4.90;99.90;;;;;;5074795;28;20138;-64
2023/02/10 09:16:45;;;;;;;27.80;9.68;;;5.00;99.90;;;;;;5074733;28;20049;-64
2023/02/10 09:19:10;;;;;;;21.52;9.80;;;5.20;99.90;;;;;;5074764;28;20041;-64
2023/02/10 09:21:36;;;;;;;27.73;9.52;;;5.20;99.90;;;;;;5071528;28;20128;-64
2023/02/10 09:24:02;;;;;;;22.13;9.27;;;5.40;99.90;;;;;;5054368;28;20044;-63
2023/02/10 09:26:28;;;;;;;21.80;9.18;;;5.50;99.90;;;;;;5054484;28;20402;-63
2023/02/10 09:28:53;;;;;;;17.50;8.55;;;5.60;99.90;;;;;;5054581;28;20490;-63
2023/02/10 09:31:19;;;;;;;18.75;9.60;;;5.80;99.90;;;;;;5068673;28;20036;-63
2023/02/10 09:33:45;;;;;;;27.90;9.45;;;5.90;99.90;;;;;;5054511;28;20392;-63
2023/02/10 09:36:15;;;;;;;26.33;9.75;;;6.00;99.90;;;;;;5054439;28;20041;-63
2023/02/10 09:38:41;;;;;;;22.58;9.38;;;6.20;99.90;;;;;;5054377;28;20033;-63
2023/02/10 09:41:18;;;;;;;21.00;9.30;;;6.30;99.90;;;;;;5054301;28;20494;-63
2023/02/10 09:44:02;;;;;;;24.15;9.27;;;6.40;99.90;;;;;;5054336;28;20044;-63
2023/02/10 09:46:55;;;;;;;23.05;10.27;;;6.60;99.90;;;;;;5047117;28;20059;-63
2023/02/10 09:49:45;;;;;;;25.85;8.50;;;6.70;99.90;;;;;;5046162;28;20037;-63
2023/02/10 09:52:43;;;;;;;21.05;8.55;;;6.80;99.90;;;;;;5072457;28;20044;-63
2023/02/10 09:55:34;;;;;;;24.67;8.70;;;6.80;99.90;;;;;;5071027;28;20040;-63
2023/02/10 09:58:09;;;;;;;23.92;8.38;;;6.80;99.90;;;;;;5074010;28;20047;-63
2023/02/10 10:00:40;;;;;;;21.00;8.50;;;6.80;99.90;;;;;;5074358;28;20537;-63
2023/02/10 10:03:13;;;;;;;16.95;8.75;;;6.70;99.90;;;;;;5073981;28;20032;-63
2023/02/10 10:05:52;;;;;;;20.80;8.38;;;6.80;99.90;;;;;;5073637;28;20040;-63
2023/02/10 10:08:39;;;;;;;18.65;9.70;;;6.90;99.90;;;;;;5073854;28;20441;-62
2023/02/10 10:11:21;;;;;;;21.30;8.60;;;6.90;99.90;;;;;;5050543;28;20052;-62
2023/02/10 10:13:47;;;;;;;21.92;9.45;;;7.00;99.90;;;;;;5073669;28;20037;-62
2023/02/10 10:16:27;;;;;;;18.17;9.18;;;7.10;99.90;;;;;;5073628;28;20101;-63
2023/02/10 10:19:15;;;;;;;17.90;8.68;;;7.20;99.90;;;;;;5073480;28;20043;-62
2023/02/10 10:22:01;;;;;;;22.60;9.48;;;7.30;99.90;;;;;;5068489;28;20446;-63
2023/02/10 10:24:51;;;;;;;26.27;9.38;;;7.30;99.90;;;;;;5052075;28;20112;-63
2023/02/10 10:27:17;;;;;;;18.77;8.45;;;7.50;99.90;;;;;;5053655;28;20055;-62
2023/02/10 10:29:53;;;;;;;21.15;9.65;;;7.50;99.90;;;;;;5052038;28;20491;-62
2023/02/10 10:32:45;;;;;;;19.17;8.65;;;7.50;99.90;;;;;;5053571;28;20051;-63
2023/02/10 10:35:25;;;;;;;20.42;8.55;;;7.60;99.90;;;;;;5053125;28;20037;-62
2023/02/10 10:37:51;;;;;;;25.15;9.48;;;7.60;99.90;;;;;;5053362;28;20500;-62
2023/02/10 10:40:22;;;;;;;22.77;8.55;;;7.60;99.90;;;;;;5053116;28;20108;-63
2023/02/10 10:42:52;;;;;;;28.45;9.57;;;7.70;99.90;;;;;;5053333;28;20395;-62
2023/02/10 10:45:27;;;;;;;24.75;8.68;;;7.60;99.90;;;;;;5052992;28;20040;-63
2023/02/10 10:47:56;;;;;;;19.52;9.10;;;7.60;99.90;;;;;;5067656;28;20072;-63
2023/02/10 10:50:23;;;;;;;30.88;9.35;;;7.60;99.90;;;;;;5073185;28;20111;-63
2023/02/10 10:52:53;;;;;;;27.30;9.40;;;7.60;99.90;;;;;;5068407;28;20041;-63
2023/02/10 10:55:35;;;;;;;27.10;8.90;;;7.50;99.90;;;;;;5045273;28;20085;-63
2023/02/10 10:58:07;;;;;;;22.52;8.88;;;7.60;99.90;;;;;;5071472;28;20044;-63
2023/02/10 11:00:33;;;;;;;23.92;9.60;;;7.50;99.90;;;;;;5072160;28;20042;-63
2023/02/10 11:03:01;;;;;;;27.58;9.45;;;7.50;99.90;;;;;;5072834;28;20059;-63
2023/02/10 11:05:31;;;;;;;28.10;9.15;;;7.40;99.90;;;;;;5072453;28;20148;-63
2023/02/10 11:07:58;;;;;;;24.90;10.05;;;7.50;99.90;;;;;;5072733;28;20372;-63
2023/02/10 11:10:46;;;;;;;24.05;8.98;;;7.50;99.90;;;;;;5071503;28;20087;-63
2023/02/10 11:13:23;;;;;;;25.33;9.60;;;7.50;99.90;;;;;;5048655;28;20090;-62
2023/02/10 11:16:01;;;;;;;26.27;9.15;;;7.60;99.90;;;;;;5072640;28;20500;-62
2023/02/10 11:18:26;;;;;;;26.08;9.70;;;7.70;99.90;;;;;;5072533;28;20076;-63
2023/02/10 11:20:58;;;;;;;28.00;8.63;;;7.70;99.90;;;;;;5070584;28;20079;-63
2023/02/10 11:23:26;;;;;;;25.92;9.27;;;7.70;99.90;;;;;;5051154;28;20047;-62
2023/02/10 11:26:20;;;;;;;20.63;9.23;;;7.70;99.90;;;;;;5051282;28;20060;-62
2023/02/10 11:28:45;;;;;;;24.30;8.38;;;7.90;99.90;;;;;;5051597;28;20087;-63
2023/02/10 11:31:34;;;;;;;27.58;8.15;;;7.90;99.90;;;;;;5052187;28;20436;-63
2023/02/10 11:34:01;;;;;;;24.38;8.07;;;7.90;99.90;;;;;;5041559;28;20037;-62
2023/02/10 11:36:36;;;;;;;23.67;7.97;;;8.00;99.90;;;;;;5052434;28;20087;-63
2023/02/10 11:39:14;;;;;;;24.15;8.55;;;8.30;99.90;;;;;;5052207;28;20041;-63
2023/02/10 11:41:40;;;;;;;18.80;7.30;;;8.30;99.90;;;;;;5052083;28;20041;-62
2023/02/10 11:44:27;;;;;;;17.75;7.18;;;8.40;99.90;;;;;;5051914;28;20047;-63
2023/02/10 11:47:02;;;;;;;18.27;8.40;;;8.50;99.90;;;;;;5066027;28;20055;-63
2023/02/10 11:49:31;;;;;;;18.98;6.97;;;8.60;99.90;;;;;;5046492;28;20068;-62
2023/02/10 11:51:59;;;;;;;25.20;7.15;;;8.70;99.90;;;;;;5071746;28;20093;-62
2023/02/10 11:54:26;;;;;;;14.30;6.25;;;8.60;99.90;;;;;;5071901;28;20123;-63
2023/02/10 12:00:19;;;;;;;16.48;6.10;;;8.60;99.90;;;;;;5071781;28;20072;-62
2023/02/10 12:02:56;;;;;;;15.98;6.60;;;8.80;99.90;;;;;;5071733;28;20060;-62
2023/02/10 12:05:45;;;;;;;23.75;6.65;;;8.80;99.90;;;;;;5071416;28;20057;-63
2023/02/10 12:08:20;;;;;;;20.95;6.97;;;8.90;99.90;;;;;;5068542;28;20045;-62
2023/02/10 12:10:52;;;;;;;15.48;6.63;;;9.10;99.90;;;;;;5071763;28;20052;-62
2023/02/10 12:13:40;;;;;;;18.13;5.75;;;9.20;99.90;;;;;;5071316;28;20044;-62
2023/02/10 12:16:29;;;;;;;15.82;5.57;;;9.20;99.90;;;;;;5044902;28;20440;-63
2023/02/10 12:19:02;;;;;;;15.02;6.00;;;9.20;99.90;;;;;;5071331;28;20128;-62
2023/02/10 12:21:40;;;;;;;21.73;5.68;;;9.20;99.90;;;;;;5071594;28;20036;-62
2023/02/10 12:24:30;;;;;;;15.40;4.95;;;9.30;99.90;;;;;;5059860;28;20522;-62
2023/02/10 12:27:11;;;;;;;20.33;5.65;;;9.20;99.90;;;;;;5051455;28;20406;-62
2023/02/10 12:30:04;;;;;;;19.05;6.13;;;9.20;99.90;;;;;;5051260;28;20510;-63
2023/02/10 12:32:59;;;;;;;15.82;3.90;;;9.10;99.90;;;;;;5051650;28;20077;-61
2023/02/10 12:35:51;;;;;;;12.73;4.40;;;8.90;99.90;;;;;;5033967;28;20075;-62
2023/02/10 12:38:37;;;;;;;16.27;4.43;;;8.90;99.90;;;;;;5050965;28;20514;-62
2023/02/10 12:41:26;;;;;;;13.52;3.90;;;8.90;99.90;;;;;;5051305;28;20037;-63
2023/02/10 12:44:10;;;;;;;10.27;3.65;;;8.90;99.90;;;;;;5056449;28;20066;-63
2023/02/10 12:46:50;;;;;;;10.73;3.90;;;9.00;99.90;;;;;;5057831;28;20048;-63
2023/02/10 12:49:34;;;;;;;19.27;4.72;;;8.90;99.90;;;;;;5046773;28;20040;-63
2023/02/10 12:52:14;;;;;;;16.48;3.15;;;9.00;99.90;;;;;;5071148;28;20133;-62
2023/02/10 12:54:52;;;;;;;15.23;3.78;;;9.10;99.90;;;;;;5070898;28;20083;-62
2023/02/10 12:57:26;;;;;;;15.35;4.90;;;9.10;99.90;;;;;;5071591;28;20033;-63
2023/02/10 13:00:01;;;;;;;15.10;3.65;;;9.10;99.90;;;;;;5070754;28;20043;-62
2023/02/10 13:02:40;;;;;;;18.67;3.90;;;9.20;99.90;;;;;;5071157;28;20037;-63